Time;durP1;ratioP1;P1;durP2;ratioP2;P2;SDS_P1;SDS_P2;PMS_P1;PMS_P2;Temp;Humidity;BMP_temperature;BMP_pressure;BME280_temperature;BME280_humidity;BME280_pressure;Samples;Min_cycle;Max_cycle;Signal;HPM_P1;HPM_P2
2024/04/02 00:00:41;;;;;;;0.40;0.20;;;;;;;10.28;63.08;95682.50;4982259;28;20059;-82
2024/04/02 00:03:09;;;;;;;0.98;0.73;;;;;;;10.28;63.24;95678.09;4978772;29;20043;-82
2024/04/02 00:05:52;;;;;;;0.40;0.40;;;;;;;10.27;63.28;95689.50;4993293;23;20038;-90
2024/04/02 00:08:17;;;;;;;0.45;0.30;;;;;;;10.27;63.39;95686.91;4977448;28;20035;-89
2024/04/02 00:10:44;;;;;;;0.25;0.20;;;;;;;10.24;62.65;95689.13;4972920;28;20050;-89
2024/04/02 00:13:12;;;;;;;1.98;1.38;;;;;;;10.19;62.38;95696.72;4980413;28;20027;-88
2024/04/02 00:15:38;;;;;;;0.90;0.47;;;;;;;10.16;62.97;95694.53;4980465;28;20043;-89
2024/04/02 00:18:04;;;;;;;1.55;0.55;;;;;;;10.13;63.41;95694.94;4975488;28;20031;-89
2024/04/02 00:20:31;;;;;;;0.38;0.30;;;;;;;10.13;63.10;95705.38;4980456;28;20078;-90
2024/04/02 00:22:57;;;;;;;1.02;0.28;;;;;;;10.11;63.42;95700.34;4974512;28;20035;-92
2024/04/02 00:25:24;;;;;;;1.67;0.35;;;;;;;10.14;63.82;95707.75;4980341;28;20042;-90
2024/04/02 00:27:53;;;;;;;1.17;0.30;;;;;;;10.11;62.69;95708.97;4973429;28;20043;-89
2024/04/02 00:30:27;;;;;;;3.20;0.47;;;;;;;10.13;64.64;95711.38;4980345;28;20039;-89
2024/04/02 00:32:53;;;;;;;0.22;0.20;;;;;;;10.13;63.92;95721.81;4973846;28;20105;-90
2024/04/02 00:35:20;;;;;;;0.32;0.28;;;;;;;10.13;63.18;95716.59;4980020;28;20257;-88
2024/04/02 00:37:46;;;;;;;0.73;0.30;;;;;;;10.10;63.94;95730.00;4972819;28;20035;-89
2024/04/02 00:40:13;;;;;;;2.55;0.60;;;;;;;10.09;64.01;95728.41;4980096;28;20047;-90
2024/04/02 00:42:39;;;;;;;0.52;0.50;;;;;;;10.05;63.12;95730.59;4980098;28;20031;-89
2024/04/02 00:45:06;;;;;;;0.80;0.20;;;;;;;10.05;65.42;95729.81;4975087;28;20108;-90
2024/04/02 00:47:34;;;;;;;0.52;0.35;;;;;;;10.02;64.70;95735.44;4979893;28;20035;-90
2024/04/02 00:50:03;;;;;;;0.73;0.40;;;;;;;9.96;63.85;95741.44;4974357;28;20035;-88
2024/04/02 00:52:29;;;;;;;0.77;0.40;;;;;;;9.93;63.61;95736.59;4979793;28;20035;-90
2024/04/02 00:54:56;;;;;;;0.50;0.47;;;;;;;9.93;64.41;95747.03;4973600;28;20031;-90
2024/04/02 00:57:22;;;;;;;0.30;0.30;;;;;;;9.89;63.99;95751.84;4979321;28;20035;-89
2024/04/02 00:59:49;;;;;;;1.08;0.20;;;;;;;9.89;63.88;95751.84;4972713;28;20045;-89
2024/04/02 01:02:15;;;;;;;0.45;0.45;;;;;;;9.87;64.37;95754.63;4979663;28;20023;-89
2024/04/02 01:04:44;;;;;;;1.00;0.30;;;;;;;9.84;64.39;95762.06;4979424;28;20042;-88
2024/04/02 01:07:11;;;;;;;0.45;0.30;;;;;;;9.83;64.94;95768.25;4979625;28;20031;-89
2024/04/02 01:09:39;;;;;;;0.35;0.22;;;;;;;9.80;64.05;95764.25;4979584;28;20053;-90
2024/04/02 01:12:07;;;;;;;0.93;0.30;;;;;;;9.77;63.70;95762.03;4974651;28;20039;-87
2024/04/02 01:14:38;;;;;;;0.35;0.35;;;;;;;9.75;63.78;95760.63;4979290;28;20049;-90
2024/04/02 01:17:04;;;;;;;1.50;0.50;;;;;;;9.75;64.32;95758.84;4974462;28;20043;-89
2024/04/02 01:19:31;;;;;;;1.17;0.30;;;;;;;9.78;64.71;95765.44;4979334;28;20039;-90
2024/04/02 01:21:59;;;;;;;3.00;0.22;;;;;;;9.76;64.10;95763.03;4973413;28;20051;-90
2024/04/02 01:24:26;;;;;;;0.40;0.35;;;;;;;9.76;63.59;95770.06;4979154;28;20078;-91
2024/04/02 01:26:53;;;;;;;0.20;0.20;;;;;;;9.74;63.91;95767.63;4972666;28;20035;-88
2024/04/02 01:29:20;;;;;;;0.30;0.30;;;;;;;9.75;63.99;95773.63;4979156;28;20055;-87
2024/04/02 01:31:46;;;;;;;0.30;0.30;;;;;;;9.72;63.80;95782.66;4971816;28;20035;-90
2024/04/02 01:34:13;;;;;;;1.17;0.40;;;;;;;9.70;64.41;95776.84;4979128;28;20035;-89
2024/04/02 01:36:40;;;;;;;0.25;0.20;;;;;;;9.73;64.96;95784.28;4979038;28;20039;-90
2024/04/02 01:39:08;;;;;;;1.20;0.20;;;;;;;9.75;64.84;95786.66;4974371;28;20035;-89
2024/04/02 01:41:34;;;;;;;0.25;0.20;;;;;;;9.73;64.86;95788.66;4979052;28;20043;-89
2024/04/02 01:44:07;;;;;;;0.20;0.10;;;;;;;9.73;64.20;95799.91;4973326;28;20031;-90
2024/04/02 01:46:33;;;;;;;0.32;0.32;;;;;;;9.75;64.20;95804.88;4978876;28;20054;-88
2024/04/02 01:49:00;;;;;;;1.45;0.35;;;;;;;9.72;63.94;95803.47;4973376;28;20066;-90
2024/04/02 01:51:27;;;;;;;0.22;0.20;;;;;;;9.72;64.62;95808.69;4979039;28;20027;-90
2024/04/02 01:53:54;;;;;;;0.40;0.35;;;;;;;9.72;64.26;95816.50;4972523;28;20039;-90
2024/04/02 01:56:20;;;;;;;0.95;0.30;;;;;;;9.73;64.62;95814.69;4978789;28;20039;-89
2024/04/02 01:58:47;;;;;;;3.55;0.35;;;;;;;9.74;63.83;95826.75;4971398;28;20050;-89
2024/04/02 02:01:14;;;;;;;0.13;0.10;;;;;;;9.72;63.78;95824.31;4978878;28;20055;-89
2024/04/02 02:03:41;;;;;;;0.65;0.10;;;;;;;9.73;64.38;95819.91;4978925;28;20031;-89
2024/04/02 02:06:07;;;;;;;0.93;0.20;;;;;;;9.77;65.07;95815.91;4974046;28;20039;-89
2024/04/02 02:08:34;;;;;;;0.30;0.20;;;;;;;9.77;64.14;95823.72;4978661;28;20047;-89
2024/04/02 02:11:03;;;;;;;1.20;0.20;;;;;;;9.76;64.17;95830.75;4976016;28;20039;-89
2024/04/02 02:13:30;;;;;;;0.50;0.30;;;;;;;9.76;63.89;95835.97;4982688;28;20043;-88
2024/04/02 02:15:57;;;;;;;1.80;0.30;;;;;;;9.78;64.89;95836.56;4976723;28;20035;-88
2024/04/02 02:18:26;;;;;;;0.85;0.40;;;;;;;9.79;64.88;95827.75;4982546;28;20051;-90
2024/04/02 02:20:51;;;;;;;1.00;0.32;;;;;;;9.80;64.25;95838.97;4976063;28;20035;-90
2024/04/02 02:23:19;;;;;;;2.10;0.10;;;;;;;9.79;64.05;95839.97;4982602;28;20046;-91
2024/04/02 02:25:44;;;;;;;1.65;0.30;;;;;;;9.78;64.35;95843.59;4974808;28;20039;-89
2024/04/02 02:28:11;;;;;;;0.40;0.22;;;;;;;9.79;65.01;95843.38;4982484;28;20062;-88
2024/04/02 02:30:37;;;;;;;1.45;0.30;;;;;;;9.80;63.42;95847.59;4982519;28;20039;-89
2024/04/02 02:33:04;;;;;;;3.63;0.32;;;;;;;9.79;64.80;95845.97;4977256;28;20066;-89
2024/04/02 02:35:31;;;;;;;0.63;0.47;;;;;;;9.81;65.68;95849.19;4982307;28;20034;-89
2024/04/02 02:37:58;;;;;;;1.42;0.20;;;;;;;9.79;63.98;95851.19;4976432;28;20066;-88
2024/04/02 02:40:24;;;;;;;0.98;0.20;;;;;;;9.77;63.73;95857.59;4982248;28;20035;-89
2024/04/02 02:42:51;;;;;;;0.17;0.17;;;;;;;9.75;63.60;95855.19;4975424;28;20055;-89
2024/04/02 02:45:17;;;;;;;0.55;0.20;;;;;;;9.77;63.39;95853.19;4982227;28;20035;-89
2024/04/02 02:47:44;;;;;;;0.45;0.20;;;;;;;9.75;64.05;95855.19;4974299;28;20086;-90
2024/04/02 02:50:09;;;;;;;0.20;0.20;;;;;;;9.76;63.57;95867.22;4982214;28;20039;-90
2024/04/02 02:52:38;;;;;;;0.35;0.20;;;;;;;9.76;63.74;95867.22;4982066;28;20041;-89
2024/04/02 02:55:04;;;;;;;0.65;0.25;;;;;;;9.75;63.48;95870.81;4976909;28;20038;-89
2024/04/02 02:57:31;;;;;;;0.10;0.10;;;;;;;9.73;63.14;95870.22;4981871;28;20036;-89
2024/04/02 02:59:57;;;;;;;0.77;0.20;;;;;;;9.70;63.16;95876.59;4975967;28;20031;-89
2024/04/02 03:02:24;;;;;;;0.30;0.20;;;;;;;9.71;64.00;95880.03;4981956;28;20043;-88
2024/04/02 03:04:50;;;;;;;1.90;0.20;;;;;;;9.69;63.62;95880.22;4974718;28;20046;-89
2024/04/02 03:07:17;;;;;;;0.10;0.10;;;;;;;9.72;64.06;95896.44;4981720;28;20070;-88
2024/04/02 03:09:44;;;;;;;0.65;0.20;;;;;;;9.75;63.41;95896.88;4981801;28;20031;-91
2024/04/02 03:12:11;;;;;;;0.93;0.10;;;;;;;9.73;63.57;95898.88;4981697;28;20058;-88
2024/04/02 03:14:37;;;;;;;0.35;0.30;;;;;;;9.72;63.70;95897.25;4981541;28;20038;-90
2024/04/02 03:17:04;;;;;;;0.50;0.30;;;;;;;9.74;64.41;95902.25;4976440;28;20054;-88
2024/04/02 03:19:30;;;;;;;0.55;0.30;;;;;;;9.77;65.33;95905.28;4981679;28;20039;-88
2024/04/02 03:21:57;;;;;;;0.10;0.10;;;;;;;9.75;64.57;95912.50;4975065;28;20043;-88
2024/04/02 03:24:23;;;;;;;0.95;0.32;;;;;;;9.77;65.24;95914.88;4981191;28;20043;-89
2024/04/02 03:26:51;;;;;;;0.30;0.30;;;;;;;9.77;65.31;95914.88;4974350;28;20035;-90
2024/04/02 03:29:17;;;;;;;3.20;0.30;;;;;;;9.74;65.27;95918.69;4981487;28;20051;-89
2024/04/02 03:31:44;;;;;;;0.40;0.30;;;;;;;9.70;66.12;95923.47;4971450;28;20078;-89
2024/04/02 03:34:10;;;;;;;0.17;0.10;;;;;;;9.72;65.29;95920.69;4961773;28;20036;-88
2024/04/02 03:36:38;;;;;;;0.73;0.30;;;;;;;9.73;65.02;95922.31;4961619;28;20036;-89
2024/04/02 03:39:05;;;;;;;0.73;0.35;;;;;;;9.74;65.33;95925.72;4958311;28;20055;-89
2024/04/02 03:41:32;;;;;;;1.10;0.30;;;;;;;9.73;65.30;95931.91;4979681;28;20028;-89
2024/04/02 03:44:00;;;;;;;0.70;0.20;;;;;;;9.73;65.11;95924.91;4958437;28;20035;-91
2024/04/02 03:46:26;;;;;;;0.73;0.20;;;;;;;9.71;65.51;95932.09;4965601;28;20070;-89
2024/04/02 03:48:53;;;;;;;0.63;0.20;;;;;;;9.71;65.26;95926.91;4966526;28;20135;-89
2024/04/02 03:56:59;;;;;;;0.52;0.43;;;;;;;9.74;64.79;95931.72;4960314;28;20035;-88
2024/04/02 03:59:27;;;;;;;0.25;0.10;;;;;;;9.74;65.19;95920.50;4942419;29;20055;-84
2024/04/02 04:01:54;;;;;;;1.00;0.47;;;;;;;9.78;64.78;95926.94;4941827;29;20040;-89
2024/04/02 04:04:19;;;;;;;0.38;0.20;;;;;;;9.78;64.85;95927.72;4938482;29;20053;-89
2024/04/02 04:06:47;;;;;;;0.20;0.20;;;;;;;9.79;64.90;95918.09;4922908;29;20047;-89
2024/04/02 04:09:12;;;;;;;1.25;0.10;;;;;;;9.80;64.27;95919.72;4922994;29;20028;-90
2024/04/02 04:11:39;;;;;;;0.55;0.28;;;;;;;9.80;64.06;95925.75;4926195;29;20048;-90
2024/04/02 04:14:05;;;;;;;0.20;0.20;;;;;;;9.77;63.85;95931.31;4922505;29;20040;-89
2024/04/02 04:16:34;;;;;;;0.52;0.10;;;;;;;9.78;64.23;95932.94;5025725;23;20032;-89
2024/04/02 04:18:59;;;;;;;0.20;0.10;;;;;;;9.77;65.17;95923.50;4946356;29;20044;-90
2024/04/02 04:21:26;;;;;;;0.73;0.20;;;;;;;9.77;64.52;95926.09;4928735;29;20139;-89
2024/04/02 04:23:52;;;;;;;1.35;0.52;;;;;;;9.79;64.57;95923.31;4935732;29;20051;-86
2024/04/02 04:26:19;;;;;;;0.73;0.30;;;;;;;9.79;64.62;95937.13;4926414;29;20056;-87
2024/04/02 04:28:45;;;;;;;1.52;0.80;;;;;;;9.76;63.70;95942.75;4934891;29;20056;-88
2024/04/02 04:31:12;;;;;;;1.10;0.30;;;;;;;9.74;63.38;95939.53;4927866;29;20067;-88
2024/04/02 04:33:39;;;;;;;0.40;0.20;;;;;;;9.70;63.11;95946.91;4926422;29;20056;-89
2024/04/02 04:36:06;;;;;;;0.20;0.20;;;;;;;9.68;64.00;95948.09;4921706;29;20476;-86
2024/04/02 04:38:31;;;;;;;0.40;0.20;;;;;;;9.67;65.39;95946.50;4927066;29;20056;-90
2024/04/02 04:40:58;;;;;;;0.20;0.20;;;;;;;9.66;64.65;95944.88;4921489;29;20079;-89
2024/04/02 04:43:24;;;;;;;0.20;0.20;;;;;;;9.63;63.43;95950.47;4926653;29;20071;-85
2024/04/02 04:45:52;;;;;;;1.75;0.32;;;;;;;9.59;62.87;95959.66;4922316;29;20098;-90
2024/04/02 04:48:19;;;;;;;0.20;0.20;;;;;;;9.55;63.32;95954.03;4928280;29;20059;-90
2024/04/02 04:50:59;;;;;;;0.63;0.30;;;;;;;9.57;63.69;95961.66;4920385;29;20052;-90
2024/04/02 04:53:25;;;;;;;0.43;0.20;;;;;;;9.56;63.79;95971.28;4927356;29;20056;-88
2024/04/02 04:55:58;;;;;;;0.20;0.20;;;;;;;9.53;63.34;95961.22;4920953;29;20107;-90
2024/04/02 04:58:25;;;;;;;1.02;0.35;;;;;;;9.54;64.47;95964.66;4926552;29;20052;-89
2024/04/02 05:00:52;;;;;;;0.30;0.20;;;;;;;9.55;64.18;95971.47;4919846;29;20504;-87
2024/04/02 05:03:19;;;;;;;0.52;0.45;;;;;;;9.57;64.90;95966.88;4925796;29;20052;-90
2024/04/02 05:05:46;;;;;;;1.98;0.60;;;;;;;9.61;63.95;95975.91;4919207;29;20528;-85
2024/04/02 05:08:26;;;;;;;2.50;0.30;;;;;;;9.65;66.18;95980.53;4925971;29;20244;-90
2024/04/02 05:10:54;;;;;;;0.68;0.30;;;;;;;9.66;64.04;95984.78;4926470;29;20048;-91
2024/04/02 05:13:21;;;;;;;0.15;0.10;;;;;;;9.67;63.57;95990.78;4925609;29;20048;-88
2024/04/02 05:15:48;;;;;;;0.20;0.10;;;;;;;9.68;63.11;95984.56;4919274;29;20064;-87
2024/04/02 05:18:15;;;;;;;0.10;0.10;;;;;;;9.69;63.03;95991.38;4925688;29;20048;-87
2024/04/02 05:20:44;;;;;;;0.20;0.20;;;;;;;9.68;63.23;95994.97;4925867;29;20084;-88
2024/04/02 05:23:13;;;;;;;2.00;0.20;;;;;;;9.69;63.04;95991.38;4925154;29;20052;-89
2024/04/02 05:25:43;;;;;;;1.00;0.32;;;;;;;9.68;62.14;95987.16;4925761;29;20076;-90
2024/04/02 05:28:09;;;;;;;1.25;0.93;;;;;;;9.69;62.56;95988.78;4921622;29;20060;-87
2024/04/02 05:30:37;;;;;;;0.93;0.63;;;;;;;9.70;62.70;95999.00;4925313;29;20062;-88
2024/04/02 05:33:04;;;;;;;2.60;0.47;;;;;;;9.70;62.12;95998.19;4920144;29;20516;-89
2024/04/02 05:35:31;;;;;;;0.85;0.40;;;;;;;9.69;62.04;96004.41;4924943;29;20512;-89
2024/04/02 05:37:57;;;;;;;1.63;0.40;;;;;;;9.69;62.39;95997.41;4918555;29;20044;-89
2024/04/02 05:40:25;;;;;;;0.60;0.30;;;;;;;9.70;62.56;96008.63;4924618;29;20055;-87
2024/04/02 05:42:55;;;;;;;0.73;0.52;;;;;;;9.71;62.17;96020.66;4917242;29;20086;-85
2024/04/02 05:45:23;;;;;;;0.20;0.10;;;;;;;9.70;61.90;96025.03;4925363;29;20152;-90
2024/04/02 05:47:53;;;;;;;0.45;0.30;;;;;;;9.73;62.12;96023.03;4919680;29;20064;-90
2024/04/02 05:50:22;;;;;;;0.10;0.10;;;;;;;9.73;61.46;96016.06;4925887;29;20479;-88
2024/04/02 05:52:48;;;;;;;0.10;0.10;;;;;;;9.73;61.39;96018.66;4918313;29;20593;-88
2024/04/02 05:55:18;;;;;;;0.10;0.00;;;;;;;9.72;60.87;96017.03;4924540;29;20060;-88
2024/04/02 05:57:45;;;;;;;0.13;0.13;;;;;;;9.72;60.95;96027.47;4916258;29;20060;-90
2024/04/02 06:00:15;;;;;;;0.15;0.10;;;;;;;9.74;61.69;96019.47;4924895;29;20052;-90
2024/04/02 06:02:42;;;;;;;0.90;0.10;;;;;;;9.76;61.57;96018.28;4927315;29;20512;-90
2024/04/02 06:05:10;;;;;;;0.20;0.13;;;;;;;9.76;60.84;96023.47;4928333;29;20056;-89
2024/04/02 06:07:36;;;;;;;1.38;0.10;;;;;;;9.74;61.80;96017.66;4928071;29;20409;-90
2024/04/02 06:10:04;;;;;;;4.47;0.82;;;;;;;9.74;61.43;96025.47;4922403;29;20052;-90
2024/04/02 06:12:31;;;;;;;0.10;0.10;;;;;;;9.77;62.14;96030.28;4924744;29;20121;-89
2024/04/02 06:14:58;;;;;;;1.17;0.10;;;;;;;9.81;63.11;96028.91;4919749;29;20044;-90
2024/04/02 06:17:25;;;;;;;1.27;0.43;;;;;;;9.83;61.70;96039.94;4924650;29;20056;-88
2024/04/02 06:19:55;;;;;;;0.13;0.13;;;;;;;9.85;61.99;96037.97;4918378;29;20056;-88
2024/04/02 06:22:28;;;;;;;2.03;0.40;;;;;;;9.88;61.70;96045.41;4924307;29;20083;-87
2024/04/02 06:24:56;;;;;;;0.32;0.28;;;;;;;9.89;61.22;96048.81;4918527;29;20060;-91
2024/04/02 06:27:27;;;;;;;0.30;0.30;;;;;;;9.87;60.43;96046.41;4923905;29;20056;-88
2024/04/02 06:29:58;;;;;;;2.22;0.45;;;;;;;9.87;61.67;96043.00;4918381;29;20052;-85
2024/04/02 06:32:26;;;;;;;0.60;0.10;;;;;;;9.89;61.36;96049.63;4924265;29;20060;-87
2024/04/02 06:34:54;;;;;;;0.22;0.20;;;;;;;9.89;61.17;96049.63;4918246;29;20052;-88
2024/04/02 06:37:20;;;;;;;0.20;0.20;;;;;;;9.91;61.56;96046.84;4925406;29;20063;-90
2024/04/02 06:39:48;;;;;;;1.23;0.13;;;;;;;9.93;61.63;96050.06;4917758;29;20501;-85
2024/04/02 06:42:15;;;;;;;1.13;0.25;;;;;;;9.94;60.84;96061.28;4925406;29;20060;-89
2024/04/02 06:44:42;;;;;;;1.27;0.35;;;;;;;9.92;60.46;96053.63;4925151;29;20058;-90
2024/04/02 06:47:08;;;;;;;2.40;0.40;;;;;;;9.89;60.24;96060.03;4925180;29;20075;-88
2024/04/02 06:49:37;;;;;;;0.50;0.05;;;;;;;9.88;59.82;96063.66;4927293;29;20056;-89
2024/04/02 06:52:07;;;;;;;0.32;0.15;;;;;;;9.89;60.25;96060.03;4920372;29;20056;-91
2024/04/02 06:54:34;;;;;;;0.93;0.20;;;;;;;9.92;60.77;96063.25;4924816;29;20056;-89
2024/04/02 06:57:01;;;;;;;0.25;0.15;;;;;;;9.91;60.21;96080.69;4921422;29;20056;-89
2024/04/02 06:59:32;;;;;;;1.40;0.38;;;;;;;9.88;60.35;96068.88;4928122;29;20056;-89
2024/04/02 07:01:58;;;;;;;0.65;0.35;;;;;;;9.87;61.45;96072.44;4926648;29;20060;-87
2024/04/02 07:04:26;;;;;;;0.35;0.20;;;;;;;9.88;60.46;96066.25;4935339;29;20060;-89
2024/04/02 07:06:59;;;;;;;0.98;0.30;;;;;;;9.90;60.35;96072.09;4928765;29;20056;-88
2024/04/02 07:09:26;;;;;;;0.30;0.30;;;;;;;9.94;60.11;96076.91;4934290;29;20056;-87
2024/04/02 07:11:52;;;;;;;0.35;0.20;;;;;;;9.94;61.12;96075.09;4921880;29;20508;-89
2024/04/02 07:14:20;;;;;;;0.13;0.10;;;;;;;9.94;61.46;96087.31;4927059;29;20052;-88
2024/04/02 07:16:46;;;;;;;5.13;0.32;;;;;;;9.97;60.78;96087.75;4920741;29;20513;-90
2024/04/02 07:19:14;;;;;;;0.20;0.20;;;;;;;10.01;61.52;96085.56;4927159;29;20088;-86
2024/04/02 07:21:40;;;;;;;2.50;0.10;;;;;;;10.06;61.71;96080.59;4926615;29;20260;-89
2024/04/02 07:24:11;;;;;;;0.43;0.17;;;;;;;10.09;61.42;96096.63;4922188;29;20048;-85
2024/04/02 07:26:37;;;;;;;1.02;0.10;;;;;;;10.09;60.99;96095.84;4927061;29;20060;-87
2024/04/02 07:29:04;;;;;;;0.65;0.55;;;;;;;10.01;61.09;96109.00;4922697;29;20060;-89
2024/04/02 07:31:30;;;;;;;0.65;0.20;;;;;;;9.96;61.20;96111.38;4928003;29;20063;-86
2024/04/02 07:33:56;;;;;;;1.00;0.20;;;;;;;9.94;62.41;96114.19;4919491;29;20052;-87
2024/04/02 07:36:25;;;;;;;2.40;0.45;;;;;;;9.93;62.37;96116.97;4924301;29;20154;-83
2024/04/02 07:38:52;;;;;;;0.35;0.17;;;;;;;9.89;62.35;96119.97;4918681;29;20138;-84
2024/04/02 07:41:20;;;;;;;0.50;0.28;;;;;;;9.89;63.04;96127.78;4923570;29;20060;-83
2024/04/02 07:43:47;;;;;;;0.63;0.28;;;;;;;9.89;63.20;96129.56;4916491;29;20052;-89
2024/04/02 07:46:14;;;;;;;1.45;0.40;;;;;;;9.87;63.61;96142.78;4922965;29;20060;-85
2024/04/02 07:48:41;;;;;;;1.85;0.22;;;;;;;9.86;63.62;96141.19;4922563;29;20098;-85
2024/04/02 07:51:08;;;;;;;2.72;0.20;;;;;;;9.84;65.04;96151.00;4918899;29;20433;-86
2024/04/02 07:53:36;;;;;;;1.35;0.40;;;;;;;9.78;65.13;96156.94;4928555;29;20052;-89
2024/04/02 07:56:07;;;;;;;0.20;0.20;;;;;;;9.70;65.60;96165.69;4923183;29;20434;-89
2024/04/02 07:58:37;;;;;;;0.57;0.25;;;;;;;9.64;66.35;96171.66;4926636;29;20056;-87
2024/04/02 08:01:04;;;;;;;0.40;0.10;;;;;;;9.63;67.00;96170.03;4921584;29;20056;-90
2024/04/02 08:03:32;;;;;;;0.63;0.20;;;;;;;9.64;66.88;96170.81;4928508;29;20056;-89
2024/04/02 08:06:01;;;;;;;0.98;0.17;;;;;;;9.64;67.15;96178.63;4922473;29;20060;-88
2024/04/02 08:08:28;;;;;;;1.17;0.20;;;;;;;9.59;66.91;96173.19;4927631;29;20440;-87
2024/04/02 08:10:54;;;;;;;0.40;0.40;;;;;;;9.62;67.13;96178.00;4921706;29;20062;-89
2024/04/02 08:13:22;;;;;;;0.70;0.35;;;;;;;9.68;67.06;96185.09;4943213;29;20081;-84
2024/04/02 08:15:53;;;;;;;0.57;0.30;;;;;;;9.74;67.60;96196.56;4919550;29;20056;-90
2024/04/02 08:18:20;;;;;;;0.30;0.20;;;;;;;9.83;66.87;96195.44;4926437;29;20051;-89
2024/04/02 08:20:46;;;;;;;0.70;0.22;;;;;;;9.96;67.08;96199.97;4919384;29;20064;-86
2024/04/02 08:23:14;;;;;;;2.90;0.60;;;;;;;10.03;66.97;96198.22;4926470;29;20052;-88
2024/04/02 08:25:42;;;;;;;2.42;0.50;;;;;;;10.09;66.21;96205.28;4926329;29;20611;-89
2024/04/02 08:28:10;;;;;;;1.30;0.30;;;;;;;10.11;65.75;96192.88;4922843;29;20052;-90
2024/04/02 08:30:41;;;;;;;1.30;0.32;;;;;;;10.10;65.57;96206.91;4926901;29;20071;-89
2024/04/02 08:33:11;;;;;;;0.30;0.20;;;;;;;10.17;65.12;96206.97;4921322;29;20173;-86
2024/04/02 08:35:38;;;;;;;2.03;0.45;;;;;;;10.77;65.62;96204.78;4925997;29;20056;-87
2024/04/02 08:38:06;;;;;;;0.63;0.35;;;;;;;11.44;62.96;96206.69;4920550;29;20525;-85
2024/04/02 08:40:33;;;;;;;0.57;0.30;;;;;;;11.51;62.02;96204.88;4924842;29;20067;-90
2024/04/02 08:43:08;;;;;;;0.63;0.30;;;;;;;11.69;62.34;96208.75;4917693;29;20358;-90
2024/04/02 08:45:37;;;;;;;1.65;0.30;;;;;;;12.75;59.61;96208.78;4924422;29;20052;-88
2024/04/02 08:48:10;;;;;;;3.03;0.40;;;;;;;13.45;56.59;96200.31;4917727;29;20056;-89
2024/04/02 08:50:38;;;;;;;3.35;0.52;;;;;;;13.79;54.75;96209.56;4922469;29;20052;-86
2024/04/02 08:53:07;;;;;;;2.30;0.30;;;;;;;13.59;54.75;96207.06;4917508;29;20059;-84
2024/04/02 08:55:39;;;;;;;0.93;0.32;;;;;;;13.23;55.26;96222.50;4922615;29;20243;-89
2024/04/02 08:58:08;;;;;;;0.73;0.30;;;;;;;12.91;56.62;96228.47;4919049;29;20056;-88
2024/04/02 09:00:34;;;;;;;1.42;0.20;;;;;;;12.69;57.22;96238.38;4923142;29;20056;-89
2024/04/02 09:03:01;;;;;;;2.33;0.32;;;;;;;12.46;55.98;96219.69;4917346;29;20082;-89
2024/04/02 09:05:31;;;;;;;2.70;0.52;;;;;;;12.21;56.13;96235.97;4923267;29;20424;-89
2024/04/02 09:08:06;;;;;;;2.58;0.35;;;;;;;12.16;57.90;96227.94;4915889;29;20056;-89
2024/04/02 09:10:37;;;;;;;1.60;0.50;;;;;;;12.24;57.84;96235.56;4923405;29;20056;-88
2024/04/02 09:13:05;;;;;;;2.58;0.70;;;;;;;12.34;56.36;96246.44;4917239;29;20092;-88
2024/04/02 09:15:31;;;;;;;1.25;0.40;;;;;;;12.31;56.88;96225.94;4921573;29;20413;-89
2024/04/02 09:18:01;;;;;;;0.55;0.40;;;;;;;12.42;56.83;96240.22;4914719;29;20051;-86
2024/04/02 09:20:36;;;;;;;0.38;0.20;;;;;;;12.60;55.32;96234.38;4920636;29;20056;-89
2024/04/02 09:23:05;;;;;;;3.35;0.70;;;;;;;12.75;55.82;96231.53;4916207;29;20056;-89
2024/04/02 09:25:31;;;;;;;1.65;0.40;;;;;;;13.01;55.12;96240.31;4920554;29;20068;-89
2024/04/02 09:27:58;;;;;;;0.88;0.43;;;;;;;13.41;54.62;96224.50;4915413;29;20127;-89
2024/04/02 09:30:26;;;;;;;3.10;0.43;;;;;;;13.75;53.34;96225.94;4923593;29;20504;-88
2024/04/02 09:32:54;;;;;;;1.88;0.30;;;;;;;13.92;52.83;96234.09;4917293;29;20060;-85
2024/04/02 09:35:32;;;;;;;1.25;0.40;;;;;;;14.21;52.44;96241.38;4922271;29;20056;-90
2024/04/02 09:38:02;;;;;;;2.58;0.38;;;;;;;14.59;51.07;96247.56;4918033;29;20060;-89
2024/04/02 09:40:32;;;;;;;0.63;0.25;;;;;;;14.83;50.78;96248.56;4924268;29;20150;-83
2024/04/02 09:43:00;;;;;;;1.10;0.20;;;;;;;15.08;49.35;96242.44;4918825;29;20402;-85
2024/04/02 09:45:33;;;;;;;3.20;0.30;;;;;;;15.41;49.89;96234.16;4924952;29;20064;-84
2024/04/02 09:48:07;;;;;;;3.88;0.40;;;;;;;15.89;48.58;96251.78;4917453;29;20052;-88
2024/04/02 09:50:40;;;;;;;1.23;0.30;;;;;;;16.26;46.92;96252.44;4923582;29;20089;-88
2024/04/02 09:53:13;;;;;;;0.95;0.30;;;;;;;16.41;47.17;96248.59;4920411;29;20402;-83
2024/04/02 09:55:42;;;;;;;2.67;0.30;;;;;;;16.41;46.70;96248.59;4923735;29;20055;-85
2024/04/02 09:58:19;;;;;;;0.30;0.28;;;;;;;16.45;47.53;96247.91;4935271;29;20421;-84
2024/04/02 10:00:53;;;;;;;1.77;0.32;;;;;;;16.68;46.73;96249.75;4927871;29;20114;-90
2024/04/02 10:03:28;;;;;;;0.50;0.30;;;;;;;16.88;46.10;96246.81;4926571;29;20056;-89
2024/04/02 10:06:03;;;;;;;0.47;0.10;;;;;;;17.12;46.82;96238.06;4922109;29;20051;-89
2024/04/02 10:08:37;;;;;;;1.08;0.43;;;;;;;17.49;45.34;96239.38;4927910;29;20063;-88
2024/04/02 10:11:10;;;;;;;1.70;0.40;;;;;;;17.63;44.35;96245.16;4925212;29;20064;-90
2024/04/02 10:13:41;;;;;;;1.23;0.32;;;;;;;17.43;44.49;96255.31;4929384;29;20063;-89
2024/04/02 10:16:13;;;;;;;1.65;0.30;;;;;;;17.05;44.83;96254.00;4924055;29;20052;-89
2024/04/02 10:18:46;;;;;;;3.88;0.30;;;;;;;16.66;44.85;96270.25;4928469;29;20630;-89
2024/04/02 10:21:17;;;;;;;1.38;0.30;;;;;;;16.30;45.03;96279.13;4922437;29;20056;-87
2024/04/02 10:23:45;;;;;;;0.80;0.20;;;;;;;15.87;47.14;96274.88;4926482;29;20060;-89
2024/04/02 10:26:18;;;;;;;0.60;0.20;;;;;;;15.70;47.82;96279.09;4926032;29;20067;-87
2024/04/02 10:28:57;;;;;;;0.63;0.20;;;;;;;15.96;48.67;96262.19;4926485;29;20059;-88
2024/04/02 10:31:34;;;;;;;0.65;0.13;;;;;;;16.51;47.88;96248.00;4928009;29;20055;-86
2024/04/02 10:34:01;;;;;;;1.13;0.32;;;;;;;16.94;46.86;96252.19;4923165;29;20044;-88
2024/04/02 10:36:30;;;;;;;1.55;0.20;;;;;;;17.39;45.47;96246.28;4929735;29;20056;-89
2024/04/02 10:38:58;;;;;;;1.73;0.25;;;;;;;17.71;43.62;96236.88;4923907;29;20536;-88
2024/04/02 10:41:29;;;;;;;0.32;0.20;;;;;;;17.86;42.76;96238.22;4929067;29;20056;-86
2024/04/02 10:44:00;;;;;;;1.67;0.40;;;;;;;18.06;44.35;96243.88;4923734;29;20052;-86
2024/04/02 10:46:30;;;;;;;1.90;0.30;;;;;;;18.25;42.42;96235.72;4928359;29;20052;-86
2024/04/02 10:48:59;;;;;;;1.63;0.30;;;;;;;18.40;43.27;96241.25;4922729;29;20428;-83
2024/04/02 10:51:29;;;;;;;1.00;0.20;;;;;;;18.58;41.89;96244.69;4928002;29;20056;-87
2024/04/02 10:54:08;;;;;;;0.68;0.35;;;;;;;18.77;42.77;96232.81;4922775;29;20497;-87
2024/04/02 10:56:43;;;;;;;0.63;0.30;;;;;;;18.77;40.78;96245.22;4928705;29;20563;-84
2024/04/02 10:59:14;;;;;;;2.08;0.55;;;;;;;18.47;41.56;96238.44;4923434;29;20056;-85
2024/04/02 11:01:43;;;;;;;1.08;0.68;;;;;;;18.18;40.81;96235.88;4928180;29;20052;-88
2024/04/02 11:04:17;;;;;;;1.80;0.50;;;;;;;17.85;40.16;96244.53;4926157;29;20060;-89
2024/04/02 11:06:50;;;;;;;3.20;0.57;;;;;;;17.48;42.79;96242.22;4930056;29;20056;-86
2024/04/02 11:09:23;;;;;;;2.20;0.35;;;;;;;17.20;42.37;96250.88;4928933;29;20294;-88
2024/04/02 11:11:57;;;;;;;4.22;0.40;;;;;;;17.01;42.07;96248.41;4929190;29;20489;-87
2024/04/02 11:14:34;;;;;;;0.95;0.40;;;;;;;16.88;42.98;96248.66;4927119;29;20056;-88
2024/04/02 11:17:00;;;;;;;0.95;0.60;;;;;;;16.82;43.51;96242.47;4921971;29;20064;-89
2024/04/02 11:19:40;;;;;;;3.15;0.50;;;;;;;16.79;41.90;96232.34;4928490;29;20056;-85
2024/04/02 11:25:14;;;;;;;1.13;0.43;;;;;;;17.19;41.57;96231.66;4932389;29;20044;-90
2024/04/02 11:27:46;;;;;;;0.80;0.30;;;;;;;17.21;41.07;96232.22;4935375;29;20066;-89
2024/04/02 11:30:17;;;;;;;2.08;0.63;;;;;;;17.27;40.87;96249.75;4934779;29;20158;-89
2024/04/02 11:32:50;;;;;;;3.88;0.63;;;;;;;17.24;38.90;96225.69;4929119;29;20516;-89
2024/04/02 11:35:22;;;;;;;1.52;0.60;;;;;;;17.06;40.07;96234.53;4928948;29;20056;-89
2024/04/02 11:37:52;;;;;;;1.90;0.60;;;;;;;16.96;39.99;96231.69;4929105;29;20048;-88
2024/04/02 11:40:20;;;;;;;1.50;0.40;;;;;;;16.98;40.70;96232.25;4927407;29;20060;-88
2024/04/02 11:42:51;;;;;;;1.67;0.35;;;;;;;17.08;40.54;96227.19;4921397;29;20055;-89
2024/04/02 11:45:22;;;;;;;2.55;0.65;;;;;;;17.09;39.40;96223.53;4928294;29;20058;-88
2024/04/02 11:47:52;;;;;;;2.33;0.68;;;;;;;16.85;39.85;96222.75;4923256;29;20056;-90
2024/04/02 11:50:21;;;;;;;1.33;0.47;;;;;;;16.65;39.43;96234.41;4929337;29;20110;-88
2024/04/02 11:52:51;;;;;;;2.03;0.50;;;;;;;16.45;40.11;96244.47;4921750;29;20064;-90